sensor_id;sensor_type;location;lat;lon;timestamp;P1;durP1;ratioP1;P2;durP2;ratioP2
20462;SDS011;10390;53.566;9.980;2022-09-09T00:00:41;19.35;;;17.25;;
20462;SDS011;10390;53.566;9.980;2022-09-09T00:03:22;20.55;;;18.27;;
20462;SDS011;10390;53.566;9.980;2022-09-09T00:08:42;18.02;;;16.20;;
20462;SDS011;10390;53.566;9.980;2022-09-09T00:11:16;19.20;;;17.20;;
20462;SDS011;10390;53.566;9.980;2022-09-09T00:13:54;19.33;;;17.33;;
20462;SDS011;10390;53.566;9.980;2022-09-09T00:16:22;18.77;;;16.85;;
20462;SDS011;10390;53.566;9.980;2022-09-09T00:18:55;16.52;;;14.82;;
20462;SDS011;10390;53.566;9.980;2022-09-09T00:22:25;17.25;;;15.45;;
20462;SDS011;10390;53.566;9.980;2022-09-09T00:27:28;16.55;;;14.85;;
20462;SDS011;10390;53.566;9.980;2022-09-09T00:30:25;15.52;;;13.93;;
20462;SDS011;10390;53.566;9.980;2022-09-09T00:33:00;16.73;;;15.00;;
20462;SDS011;10390;53.566;9.980;2022-09-09T00:35:36;16.05;;;14.35;;
20462;SDS011;10390;53.566;9.980;2022-09-09T00:38:10;15.15;;;13.65;;
20462;SDS011;10390;53.566;9.980;2022-09-09T00:43:21;16.42;;;14.73;;
20462;SDS011;10390;53.566;9.980;2022-09-09T00:46:14;14.90;;;13.40;;
20462;SDS011;10390;53.566;9.980;2022-09-09T00:52:12;13.18;;;11.82;;
20462;SDS011;10390;53.566;9.980;2022-09-09T00:57:32;15.52;;;14.02;;
20462;SDS011;10390;53.566;9.980;2022-09-09T01:05:47;15.07;;;13.57;;
20462;SDS011;10390;53.566;9.980;2022-09-09T01:08:39;14.80;;;13.38;;
20462;SDS011;10390;53.566;9.980;2022-09-09T01:14:01;13.90;;;12.55;;
20462;SDS011;10390;53.566;9.980;2022-09-09T01:16:42;13.48;;;12.18;;
20462;SDS011;10390;53.566;9.980;2022-09-09T01:19:09;13.50;;;12.20;;
20462;SDS011;10390;53.566;9.980;2022-09-09T01:22:01;12.82;;;11.52;;
20462;SDS011;10390;53.566;9.980;2022-09-09T01:27:21;13.90;;;12.50;;
20462;SDS011;10390;53.566;9.980;2022-09-09T01:29:48;13.40;;;12.10;;
20462;SDS011;10390;53.566;9.980;2022-09-09T01:35:09;12.38;;;11.27;;
20462;SDS011;10390;53.566;9.980;2022-09-09T01:37:56;12.25;;;11.15;;
20462;SDS011;10390;53.566;9.980;2022-09-09T01:40:22;12.23;;;11.02;;
20462;SDS011;10390;53.566;9.980;2022-09-09T01:42:48;11.88;;;10.77;;
20462;SDS011;10390;53.566;9.980;2022-09-09T01:45:14;11.85;;;10.73;;
20462;SDS011;10390;53.566;9.980;2022-09-09T01:47:42;10.25;;;9.35;;
20462;SDS011;10390;53.566;9.980;2022-09-09T01:50:13;10.35;;;9.38;;
20462;SDS011;10390;53.566;9.980;2022-09-09T01:52:40;10.40;;;9.40;;
20462;SDS011;10390;53.566;9.980;2022-09-09T01:55:07;10.38;;;8.98;;
20462;SDS011;10390;53.566;9.980;2022-09-09T01:57:39;10.00;;;9.10;;
20462;SDS011;10390;53.566;9.980;2022-09-09T02:00:18;10.02;;;9.05;;
20462;SDS011;10390;53.566;9.980;2022-09-09T02:05:30;10.02;;;9.13;;
20462;SDS011;10390;53.566;9.980;2022-09-09T02:13:40;9.98;;;9.10;;
20462;SDS011;10390;53.566;9.980;2022-09-09T02:16:28;9.57;;;8.68;;
20462;SDS011;10390;53.566;9.980;2022-09-09T02:21:55;9.30;;;8.50;;
20462;SDS011;10390;53.566;9.980;2022-09-09T02:24:25;9.68;;;8.85;;
20462;SDS011;10390;53.566;9.980;2022-09-09T02:26:54;9.30;;;8.50;;
20462;SDS011;10390;53.566;9.980;2022-09-09T02:29:23;9.68;;;8.77;;
20462;SDS011;10390;53.566;9.980;2022-09-09T02:31:57;9.60;;;8.73;;
20462;SDS011;10390;53.566;9.980;2022-09-09T02:34:27;9.10;;;8.30;;
20462;SDS011;10390;53.566;9.980;2022-09-09T02:36:55;10.00;;;9.10;;
20462;SDS011;10390;53.566;9.980;2022-09-09T02:39:24;9.40;;;8.60;;
20462;SDS011;10390;53.566;9.980;2022-09-09T02:41:50;9.27;;;8.48;;
20462;SDS011;10390;53.566;9.980;2022-09-09T02:44:16;9.75;;;8.85;;
20462;SDS011;10390;53.566;9.980;2022-09-09T02:51:57;9.38;;;8.57;;
20462;SDS011;10390;53.566;9.980;2022-09-09T02:56:55;9.13;;;8.32;;
20462;SDS011;10390;53.566;9.980;2022-09-09T02:59:26;9.07;;;8.27;;
20462;SDS011;10390;53.566;9.980;2022-09-09T03:01:52;9.10;;;8.30;;
20462;SDS011;10390;53.566;9.980;2022-09-09T03:04:18;8.95;;;8.05;;
20462;SDS011;10390;53.566;9.980;2022-09-09T03:06:44;9.20;;;8.40;;
20462;SDS011;10390;53.566;9.980;2022-09-09T03:09:09;8.63;;;7.82;;
20462;SDS011;10390;53.566;9.980;2022-09-09T03:11:35;8.85;;;8.05;;
20462;SDS011;10390;53.566;9.980;2022-09-09T03:14:01;8.70;;;7.90;;
20462;SDS011;10390;53.566;9.980;2022-09-09T03:16:27;7.90;;;7.20;;
20462;SDS011;10390;53.566;9.980;2022-09-09T03:18:53;8.13;;;7.43;;
20462;SDS011;10390;53.566;9.980;2022-09-09T03:21:18;8.00;;;7.30;;
20462;SDS011;10390;53.566;9.980;2022-09-09T03:23:44;8.05;;;7.32;;
20462;SDS011;10390;53.566;9.980;2022-09-09T03:26:10;8.05;;;7.25;;
20462;SDS011;10390;53.566;9.980;2022-09-09T03:28:35;7.50;;;6.72;;
20462;SDS011;10390;53.566;9.980;2022-09-09T03:31:04;6.88;;;6.18;;
20462;SDS011;10390;53.566;9.980;2022-09-09T03:33:31;6.57;;;5.97;;
20462;SDS011;10390;53.566;9.980;2022-09-09T03:35:57;6.93;;;6.25;;
20462;SDS011;10390;53.566;9.980;2022-09-09T03:38:23;7.50;;;6.70;;
20462;SDS011;10390;53.566;9.980;2022-09-09T03:40:53;6.70;;;6.00;;
20462;SDS011;10390;53.566;9.980;2022-09-09T03:43:25;6.97;;;6.28;;
20462;SDS011;10390;53.566;9.980;2022-09-09T03:45:51;7.78;;;7.07;;
20462;SDS011;10390;53.566;9.980;2022-09-09T03:48:18;7.68;;;6.97;;
20462;SDS011;10390;53.566;9.980;2022-09-09T03:50:45;7.10;;;6.40;;
20462;SDS011;10390;53.566;9.980;2022-09-09T03:53:11;6.95;;;6.25;;
20462;SDS011;10390;53.566;9.980;2022-09-09T03:55:38;7.78;;;6.97;;
20462;SDS011;10390;53.566;9.980;2022-09-09T03:58:03;7.88;;;7.18;;
20462;SDS011;10390;53.566;9.980;2022-09-09T04:00:29;7.15;;;6.45;;
20462;SDS011;10390;53.566;9.980;2022-09-09T04:02:55;7.20;;;6.50;;
20462;SDS011;10390;53.566;9.980;2022-09-09T04:05:22;6.38;;;5.78;;
20462;SDS011;10390;53.566;9.980;2022-09-09T04:07:48;7.20;;;6.50;;
20462;SDS011;10390;53.566;9.980;2022-09-09T04:10:14;7.10;;;6.40;;
20462;SDS011;10390;53.566;9.980;2022-09-09T04:12:40;7.40;;;6.70;;
20462;SDS011;10390;53.566;9.980;2022-09-09T04:15:07;7.18;;;6.47;;
20462;SDS011;10390;53.566;9.980;2022-09-09T04:17:33;7.22;;;6.53;;
20462;SDS011;10390;53.566;9.980;2022-09-09T04:19:59;6.60;;;6.00;;
20462;SDS011;10390;53.566;9.980;2022-09-09T04:22:25;6.97;;;6.28;;
20462;SDS011;10390;53.566;9.980;2022-09-09T04:24:50;6.50;;;5.90;;
20462;SDS011;10390;53.566;9.980;2022-09-09T04:27:16;6.55;;;5.70;;
20462;SDS011;10390;53.566;9.980;2022-09-09T04:29:41;6.95;;;6.28;;
20462;SDS011;10390;53.566;9.980;2022-09-09T04:32:07;6.75;;;6.15;;
20462;SDS011;10390;53.566;9.980;2022-09-09T04:34:32;7.82;;;7.03;;
20462;SDS011;10390;53.566;9.980;2022-09-09T04:36:58;7.45;;;6.75;;
20462;SDS011;10390;53.566;9.980;2022-09-09T04:39:24;7.13;;;6.43;;
20462;SDS011;10390;53.566;9.980;2022-09-09T04:41:50;7.15;;;6.45;;
20462;SDS011;10390;53.566;9.980;2022-09-09T04:44:15;7.63;;;6.90;;
20462;SDS011;10390;53.566;9.980;2022-09-09T04:46:41;7.90;;;7.20;;
20462;SDS011;10390;53.566;9.980;2022-09-09T04:49:07;7.90;;;7.10;;
20462;SDS011;10390;53.566;9.980;2022-09-09T04:51:32;7.22;;;6.53;;
20462;SDS011;10390;53.566;9.980;2022-09-09T04:53:58;7.82;;;7.03;;
20462;SDS011;10390;53.566;9.980;2022-09-09T04:56:24;7.85;;;7.15;;
20462;SDS011;10390;53.566;9.980;2022-09-09T04:58:51;6.60;;;6.00;;
20462;SDS011;10390;53.566;9.980;2022-09-09T05:01:19;7.30;;;6.60;;
20462;SDS011;10390;53.566;9.980;2022-09-09T05:03:46;7.53;;;6.75;;
20462;SDS011;10390;53.566;9.980;2022-09-09T05:06:16;6.65;;;6.05;;
20462;SDS011;10390;53.566;9.980;2022-09-09T05:08:43;6.38;;;5.78;;
20462;SDS011;10390;53.566;9.980;2022-09-09T05:11:16;6.57;;;5.97;;
20462;SDS011;10390;53.566;9.980;2022-09-09T05:13:48;6.38;;;5.78;;
20462;SDS011;10390;53.566;9.980;2022-09-09T05:16:15;6.35;;;5.75;;
20462;SDS011;10390;53.566;9.980;2022-09-09T05:18:42;6.68;;;6.00;;
20462;SDS011;10390;53.566;9.980;2022-09-09T05:21:08;6.05;;;5.45;;
20462;SDS011;10390;53.566;9.980;2022-09-09T05:23:35;6.50;;;5.90;;
20462;SDS011;10390;53.566;9.980;2022-09-09T05:26:01;6.32;;;5.72;;
20462;SDS011;10390;53.566;9.980;2022-09-09T05:28:28;6.22;;;5.63;;
20462;SDS011;10390;53.566;9.980;2022-09-09T05:30:58;6.50;;;5.90;;
20462;SDS011;10390;53.566;9.980;2022-09-09T05:33:25;5.85;;;5.32;;
20462;SDS011;10390;53.566;9.980;2022-09-09T05:35:58;6.65;;;6.03;;
20462;SDS011;10390;53.566;9.980;2022-09-09T05:38:26;6.22;;;5.63;;
20462;SDS011;10390;53.566;9.980;2022-09-09T05:40:52;8.18;;;5.90;;
20462;SDS011;10390;53.566;9.980;2022-09-09T05:43:19;6.43;;;5.50;;
20462;SDS011;10390;53.566;9.980;2022-09-09T05:45:48;7.00;;;6.30;;
20462;SDS011;10390;53.566;9.980;2022-09-09T05:48:27;6.68;;;6.03;;
20462;SDS011;10390;53.566;9.980;2022-09-09T05:50:54;6.40;;;5.60;;
20462;SDS011;10390;53.566;9.980;2022-09-09T05:53:20;6.35;;;5.75;;
20462;SDS011;10390;53.566;9.980;2022-09-09T05:55:45;6.47;;;5.88;;
20462;SDS011;10390;53.566;9.980;2022-09-09T05:58:12;6.22;;;5.68;;
20462;SDS011;10390;53.566;9.980;2022-09-09T06:00:41;6.40;;;5.80;;
20462;SDS011;10390;53.566;9.980;2022-09-09T06:03:10;6.63;;;6.03;;
20462;SDS011;10390;53.566;9.980;2022-09-09T06:05:36;6.57;;;5.97;;
20462;SDS011;10390;53.566;9.980;2022-09-09T06:08:02;6.68;;;6.07;;
20462;SDS011;10390;53.566;9.980;2022-09-09T06:10:28;6.50;;;5.93;;
20462;SDS011;10390;53.566;9.980;2022-09-09T06:12:54;6.07;;;5.57;;
20462;SDS011;10390;53.566;9.980;2022-09-09T06:15:20;6.43;;;5.78;;
20462;SDS011;10390;53.566;9.980;2022-09-09T06:17:46;6.22;;;5.65;;
20462;SDS011;10390;53.566;9.980;2022-09-09T06:20:12;6.22;;;5.63;;
20462;SDS011;10390;53.566;9.980;2022-09-09T06:22:41;6.53;;;5.88;;
20462;SDS011;10390;53.566;9.980;2022-09-09T06:25:08;6.25;;;5.75;;
20462;SDS011;10390;53.566;9.980;2022-09-09T06:27:34;6.43;;;5.70;;
20462;SDS011;10390;53.566;9.980;2022-09-09T06:30:00;6.53;;;5.80;;
20462;SDS011;10390;53.566;9.980;2022-09-09T06:32:25;6.50;;;5.90;;
20462;SDS011;10390;53.566;9.980;2022-09-09T06:34:52;6.50;;;5.97;;
20462;SDS011;10390;53.566;9.980;2022-09-09T06:37:17;6.00;;;5.50;;
20462;SDS011;10390;53.566;9.980;2022-09-09T06:39:43;6.30;;;5.70;;
20462;SDS011;10390;53.566;9.980;2022-09-09T06:42:09;6.20;;;5.60;;
20462;SDS011;10390;53.566;9.980;2022-09-09T06:44:35;6.47;;;5.88;;
20462;SDS011;10390;53.566;9.980;2022-09-09T06:47:01;6.35;;;5.75;;
20462;SDS011;10390;53.566;9.980;2022-09-09T06:49:27;6.25;;;5.65;;
20462;SDS011;10390;53.566;9.980;2022-09-09T06:51:52;5.90;;;5.28;;
20462;SDS011;10390;53.566;9.980;2022-09-09T06:54:19;6.30;;;5.70;;
20462;SDS011;10390;53.566;9.980;2022-09-09T06:56:45;6.30;;;5.70;;
20462;SDS011;10390;53.566;9.980;2022-09-09T06:59:11;6.38;;;5.78;;
20462;SDS011;10390;53.566;9.980;2022-09-09T07:01:41;6.32;;;5.75;;
20462;SDS011;10390;53.566;9.980;2022-09-09T07:04:14;5.97;;;5.38;;
20462;SDS011;10390;53.566;9.980;2022-09-09T07:06:40;6.60;;;6.00;;
20462;SDS011;10390;53.566;9.980;2022-09-09T07:09:12;6.32;;;5.72;;
20462;SDS011;10390;53.566;9.980;2022-09-09T07:11:42;6.70;;;6.10;;
20462;SDS011;10390;53.566;9.980;2022-09-09T07:14:10;6.05;;;5.43;;
20462;SDS011;10390;53.566;9.980;2022-09-09T07:16:40;6.30;;;5.80;;
20462;SDS011;10390;53.566;9.980;2022-09-09T07:19:10;5.78;;;5.22;;
20462;SDS011;10390;53.566;9.980;2022-09-09T07:21:37;5.72;;;5.22;;
20462;SDS011;10390;53.566;9.980;2022-09-09T07:24:05;6.25;;;5.57;;
20462;SDS011;10390;53.566;9.980;2022-09-09T07:26:32;6.13;;;5.53;;
20462;SDS011;10390;53.566;9.980;2022-09-09T07:28:59;6.78;;;6.18;;
20462;SDS011;10390;53.566;9.980;2022-09-09T07:31:28;6.30;;;5.68;;
20462;SDS011;10390;53.566;9.980;2022-09-09T07:33:56;6.13;;;5.53;;
20462;SDS011;10390;53.566;9.980;2022-09-09T07:36:26;5.60;;;5.10;;
20462;SDS011;10390;53.566;9.980;2022-09-09T07:38:54;6.30;;;5.70;;
20462;SDS011;10390;53.566;9.980;2022-09-09T07:41:26;6.15;;;5.65;;
20462;SDS011;10390;53.566;9.980;2022-09-09T07:43:53;6.20;;;5.63;;
20462;SDS011;10390;53.566;9.980;2022-09-09T07:46:20;5.97;;;5.40;;
20462;SDS011;10390;53.566;9.980;2022-09-09T07:48:51;6.50;;;5.90;;
20462;SDS011;10390;53.566;9.980;2022-09-09T07:51:26;6.43;;;5.88;;
20462;SDS011;10390;53.566;9.980;2022-09-09T07:53:57;5.72;;;5.22;;
20462;SDS011;10390;53.566;9.980;2022-09-09T07:56:28;5.90;;;5.30;;
20462;SDS011;10390;53.566;9.980;2022-09-09T07:58:55;6.35;;;5.70;;
20462;SDS011;10390;53.566;9.980;2022-09-09T08:06:24;6.22;;;5.63;;
20462;SDS011;10390;53.566;9.980;2022-09-09T08:08:51;5.70;;;5.20;;
20462;SDS011;10390;53.566;9.980;2022-09-09T08:11:18;6.03;;;5.53;;
20462;SDS011;10390;53.566;9.980;2022-09-09T08:13:43;6.50;;;5.47;;
20462;SDS011;10390;53.566;9.980;2022-09-09T08:16:11;6.00;;;5.40;;
20462;SDS011;10390;53.566;9.980;2022-09-09T08:18:38;5.90;;;5.40;;
20462;SDS011;10390;53.566;9.980;2022-09-09T08:21:09;6.45;;;5.85;;
20462;SDS011;10390;53.566;9.980;2022-09-09T08:23:42;5.95;;;5.35;;
20462;SDS011;10390;53.566;9.980;2022-09-09T08:26:13;6.18;;;5.68;;
20462;SDS011;10390;53.566;9.980;2022-09-09T08:28:41;6.25;;;5.68;;
20462;SDS011;10390;53.566;9.980;2022-09-09T08:31:09;6.35;;;5.75;;
20462;SDS011;10390;53.566;9.980;2022-09-09T08:33:39;6.10;;;5.60;;
20462;SDS011;10390;53.566;9.980;2022-09-09T08:36:06;6.15;;;5.60;;
20462;SDS011;10390;53.566;9.980;2022-09-09T08:38:35;6.75;;;6.15;;
20462;SDS011;10390;53.566;9.980;2022-09-09T08:44:00;6.32;;;5.75;;
20462;SDS011;10390;53.566;9.980;2022-09-09T08:54:52;6.50;;;5.93;;
20462;SDS011;10390;53.566;9.980;2022-09-09T08:57:40;6.10;;;5.50;;
20462;SDS011;10390;53.566;9.980;2022-09-09T09:00:08;6.18;;;5.68;;
20462;SDS011;10390;53.566;9.980;2022-09-09T09:05:27;6.68;;;6.07;;
20462;SDS011;10390;53.566;9.980;2022-09-09T09:11:00;6.55;;;5.93;;
20462;SDS011;10390;53.566;9.980;2022-09-09T09:16:00;6.30;;;5.70;;
20462;SDS011;10390;53.566;9.980;2022-09-09T09:18:34;6.15;;;5.55;;
20462;SDS011;10390;53.566;9.980;2022-09-09T09:23:51;6.25;;;5.65;;
20462;SDS011;10390;53.566;9.980;2022-09-09T09:26:24;6.82;;;6.10;;
20462;SDS011;10390;53.566;9.980;2022-09-09T09:28:55;6.40;;;5.90;;
20462;SDS011;10390;53.566;9.980;2022-09-09T09:31:22;6.22;;;5.45;;
20462;SDS011;10390;53.566;9.980;2022-09-09T09:33:55;6.13;;;5.53;;
20462;SDS011;10390;53.566;9.980;2022-09-09T09:36:38;6.05;;;5.50;;
20462;SDS011;10390;53.566;9.980;2022-09-09T09:39:07;6.55;;;5.40;;
20462;SDS011;10390;53.566;9.980;2022-09-09T09:41:41;6.03;;;5.53;;
20462;SDS011;10390;53.566;9.980;2022-09-09T09:47:08;5.90;;;5.40;;
20462;SDS011;10390;53.566;9.980;2022-09-09T09:49:37;6.00;;;5.40;;
20462;SDS011;10390;53.566;9.980;2022-09-09T09:52:03;5.55;;;4.80;;
20462;SDS011;10390;53.566;9.980;2022-09-09T09:54:32;5.40;;;4.93;;
20462;SDS011;10390;53.566;9.980;2022-09-09T09:57:09;6.07;;;5.47;;
20462;SDS011;10390;53.566;9.980;2022-09-09T09:59:39;6.82;;;5.13;;
20462;SDS011;10390;53.566;9.980;2022-09-09T10:04:37;6.53;;;5.93;;
20462;SDS011;10390;53.566;9.980;2022-09-09T10:07:15;6.43;;;5.88;;
20462;SDS011;10390;53.566;9.980;2022-09-09T10:09:48;6.78;;;6.15;;
20462;SDS011;10390;53.566;9.980;2022-09-09T10:12:22;6.75;;;6.07;;
20462;SDS011;10390;53.566;9.980;2022-09-09T10:21:02;6.40;;;5.65;;
20462;SDS011;10390;53.566;9.980;2022-09-09T10:27:11;6.50;;;5.90;;
20462;SDS011;10390;53.566;9.980;2022-09-09T10:40:33;5.72;;;5.13;;
20462;SDS011;10390;53.566;9.980;2022-09-09T10:43:07;5.70;;;5.10;;
20462;SDS011;10390;53.566;9.980;2022-09-09T10:45:54;5.72;;;4.97;;
20462;SDS011;10390;53.566;9.980;2022-09-09T10:51:14;5.88;;;5.03;;
20462;SDS011;10390;53.566;9.980;2022-09-09T10:54:13;5.13;;;4.63;;
20462;SDS011;10390;53.566;9.980;2022-09-09T10:57:03;5.07;;;4.57;;
20462;SDS011;10390;53.566;9.980;2022-09-09T10:59:44;5.45;;;4.93;;
20462;SDS011;10390;53.566;9.980;2022-09-09T11:02:15;4.82;;;4.30;;
20462;SDS011;10390;53.566;9.980;2022-09-09T11:04:52;5.47;;;4.85;;
20462;SDS011;10390;53.566;9.980;2022-09-09T11:07:28;5.00;;;4.50;;
20462;SDS011;10390;53.566;9.980;2022-09-09T11:10:01;5.07;;;4.57;;
20462;SDS011;10390;53.566;9.980;2022-09-09T11:12:31;5.07;;;4.57;;
20462;SDS011;10390;53.566;9.980;2022-09-09T11:15:04;5.07;;;4.57;;
20462;SDS011;10390;53.566;9.980;2022-09-09T11:17:43;5.00;;;4.50;;
20462;SDS011;10390;53.566;9.980;2022-09-09T11:20:14;4.60;;;4.20;;
20462;SDS011;10390;53.566;9.980;2022-09-09T11:22:45;4.50;;;3.75;;
20462;SDS011;10390;53.566;9.980;2022-09-09T11:27:49;5.32;;;4.82;;
20462;SDS011;10390;53.566;9.980;2022-09-09T11:30:39;4.82;;;4.32;;
20462;SDS011;10390;53.566;9.980;2022-09-09T11:39:27;5.90;;;5.05;;
20462;SDS011;10390;53.566;9.980;2022-09-09T11:41:51;5.18;;;4.63;;
20462;SDS011;10390;53.566;9.980;2022-09-09T11:44:18;6.13;;;5.53;;
20462;SDS011;10390;53.566;9.980;2022-09-09T11:46:52;7.75;;;5.63;;
20462;SDS011;10390;53.566;9.980;2022-09-09T11:49:28;6.20;;;5.50;;
20462;SDS011;10390;53.566;9.980;2022-09-09T11:52:22;6.07;;;5.47;;
20462;SDS011;10390;53.566;9.980;2022-09-09T11:54:51;6.43;;;5.82;;
20462;SDS011;10390;53.566;9.980;2022-09-09T11:57:39;5.40;;;4.90;;
20462;SDS011;10390;53.566;9.980;2022-09-09T12:00:03;5.05;;;4.55;;
20462;SDS011;10390;53.566;9.980;2022-09-09T12:02:30;6.47;;;5.10;;
20462;SDS011;10390;53.566;9.980;2022-09-09T12:05:09;7.35;;;6.47;;
20462;SDS011;10390;53.566;9.980;2022-09-09T12:10:24;36.47;;;22.65;;
20462;SDS011;10390;53.566;9.980;2022-09-09T12:13:07;31.48;;;19.73;;
20462;SDS011;10390;53.566;9.980;2022-09-09T12:15:34;33.47;;;20.35;;
20462;SDS011;10390;53.566;9.980;2022-09-09T12:18:00;31.77;;;19.85;;
20462;SDS011;10390;53.566;9.980;2022-09-09T12:31:14;30.52;;;18.65;;
20462;SDS011;10390;53.566;9.980;2022-09-09T12:33:51;38.20;;;22.15;;
20462;SDS011;10390;53.566;9.980;2022-09-09T12:36:38;34.42;;;21.25;;
20462;SDS011;10390;53.566;9.980;2022-09-09T12:39:20;29.08;;;18.65;;
20462;SDS011;10390;53.566;9.980;2022-09-09T12:41:53;28.27;;;16.95;;
20462;SDS011;10390;53.566;9.980;2022-09-09T12:44:21;16.98;;;11.07;;
20462;SDS011;10390;53.566;9.980;2022-09-09T12:46:48;10.25;;;7.57;;
20462;SDS011;10390;53.566;9.980;2022-09-09T12:52:07;17.73;;;13.00;;
20462;SDS011;10390;53.566;9.980;2022-09-09T12:54:47;18.58;;;13.13;;
20462;SDS011;10390;53.566;9.980;2022-09-09T12:57:16;16.25;;;11.77;;
20462;SDS011;10390;53.566;9.980;2022-09-09T12:59:43;15.38;;;11.88;;
20462;SDS011;10390;53.566;9.980;2022-09-09T13:02:18;14.57;;;9.80;;
20462;SDS011;10390;53.566;9.980;2022-09-09T13:04:48;14.20;;;10.20;;
20462;SDS011;10390;53.566;9.980;2022-09-09T13:07:15;13.00;;;10.40;;
20462;SDS011;10390;53.566;9.980;2022-09-09T13:09:45;14.13;;;9.68;;
20462;SDS011;10390;53.566;9.980;2022-09-09T13:12:22;12.52;;;8.23;;
20462;SDS011;10390;53.566;9.980;2022-09-09T13:14:52;10.80;;;8.43;;
20462;SDS011;10390;53.566;9.980;2022-09-09T13:17:22;10.98;;;8.70;;
20462;SDS011;10390;53.566;9.980;2022-09-09T13:19:49;10.63;;;8.10;;
20462;SDS011;10390;53.566;9.980;2022-09-09T13:22:29;11.10;;;8.30;;
20462;SDS011;10390;53.566;9.980;2022-09-09T13:24:59;9.77;;;7.47;;
20462;SDS011;10390;53.566;9.980;2022-09-09T13:27:55;8.82;;;7.30;;
20462;SDS011;10390;53.566;9.980;2022-09-09T13:30:36;9.32;;;7.07;;
20462;SDS011;10390;53.566;9.980;2022-09-09T13:35:53;9.60;;;7.82;;
20462;SDS011;10390;53.566;9.980;2022-09-09T13:38:21;10.93;;;8.38;;
20462;SDS011;10390;53.566;9.980;2022-09-09T13:40:57;10.38;;;6.90;;
20462;SDS011;10390;53.566;9.980;2022-09-09T13:43:27;9.02;;;6.28;;
20462;SDS011;10390;53.566;9.980;2022-09-09T13:46:37;9.50;;;6.75;;
20462;SDS011;10390;53.566;9.980;2022-09-09T13:48:58;9.63;;;6.20;;
20462;SDS011;10390;53.566;9.980;2022-09-09T13:51:45;8.82;;;6.70;;
20462;SDS011;10390;53.566;9.980;2022-09-09T13:54:13;8.27;;;6.75;;
20462;SDS011;10390;53.566;9.980;2022-09-09T13:56:40;11.23;;;6.28;;
20462;SDS011;10390;53.566;9.980;2022-09-09T13:59:14;7.85;;;6.38;;
20462;SDS011;10390;53.566;9.980;2022-09-09T14:01:41;8.77;;;6.53;;
20462;SDS011;10390;53.566;9.980;2022-09-09T14:04:07;8.50;;;6.00;;
20462;SDS011;10390;53.566;9.980;2022-09-09T14:06:37;8.10;;;6.15;;
20462;SDS011;10390;53.566;9.980;2022-09-09T14:09:04;7.68;;;6.15;;
20462;SDS011;10390;53.566;9.980;2022-09-09T14:11:31;6.35;;;4.80;;
20462;SDS011;10390;53.566;9.980;2022-09-09T14:13:56;8.27;;;6.18;;
20462;SDS011;10390;53.566;9.980;2022-09-09T14:16:22;9.35;;;5.85;;
20462;SDS011;10390;53.566;9.980;2022-09-09T14:18:48;9.63;;;6.00;;
20462;SDS011;10390;53.566;9.980;2022-09-09T14:21:14;6.60;;;5.78;;
20462;SDS011;10390;53.566;9.980;2022-09-09T14:23:40;8.07;;;6.00;;
20462;SDS011;10390;53.566;9.980;2022-09-09T14:26:06;6.65;;;5.72;;
20462;SDS011;10390;53.566;9.980;2022-09-09T14:28:33;8.13;;;5.80;;
20462;SDS011;10390;53.566;9.980;2022-09-09T14:31:00;7.50;;;5.63;;
20462;SDS011;10390;53.566;9.980;2022-09-09T14:33:26;7.07;;;5.75;;
20462;SDS011;10390;53.566;9.980;2022-09-09T14:35:57;9.48;;;6.35;;
20462;SDS011;10390;53.566;9.980;2022-09-09T14:38:24;12.68;;;6.47;;
20462;SDS011;10390;53.566;9.980;2022-09-09T14:40:53;9.45;;;6.28;;
20462;SDS011;10390;53.566;9.980;2022-09-09T14:43:19;9.20;;;6.07;;
20462;SDS011;10390;53.566;9.980;2022-09-09T14:45:45;7.53;;;5.75;;
20462;SDS011;10390;53.566;9.980;2022-09-09T14:48:13;9.32;;;5.50;;
20462;SDS011;10390;53.566;9.980;2022-09-09T14:50:40;10.05;;;6.05;;
20462;SDS011;10390;53.566;9.980;2022-09-09T14:53:07;17.40;;;6.15;;
20462;SDS011;10390;53.566;9.980;2022-09-09T14:55:33;16.08;;;6.32;;
20462;SDS011;10390;53.566;9.980;2022-09-09T14:57:59;7.40;;;4.88;;
20462;SDS011;10390;53.566;9.980;2022-09-09T15:00:25;9.18;;;5.68;;
20462;SDS011;10390;53.566;9.980;2022-09-09T15:02:54;7.55;;;4.53;;
20462;SDS011;10390;53.566;9.980;2022-09-09T15:05:20;9.60;;;5.78;;
20462;SDS011;10390;53.566;9.980;2022-09-09T15:07:46;7.07;;;5.65;;
20462;SDS011;10390;53.566;9.980;2022-09-09T15:10:13;7.43;;;6.03;;
20462;SDS011;10390;53.566;9.980;2022-09-09T15:12:39;6.03;;;4.95;;
20462;SDS011;10390;53.566;9.980;2022-09-09T15:15:06;10.20;;;5.70;;
20462;SDS011;10390;53.566;9.980;2022-09-09T15:17:33;9.43;;;4.65;;
20462;SDS011;10390;53.566;9.980;2022-09-09T15:20:00;14.70;;;5.80;;
20462;SDS011;10390;53.566;9.980;2022-09-09T15:22:25;6.88;;;5.03;;
20462;SDS011;10390;53.566;9.980;2022-09-09T15:24:51;8.88;;;5.32;;
20462;SDS011;10390;53.566;9.980;2022-09-09T15:27:17;6.50;;;5.20;;
20462;SDS011;10390;53.566;9.980;2022-09-09T15:29:43;9.80;;;4.80;;
20462;SDS011;10390;53.566;9.980;2022-09-09T15:32:09;8.35;;;5.18;;
20462;SDS011;10390;53.566;9.980;2022-09-09T15:34:35;10.10;;;5.40;;
20462;SDS011;10390;53.566;9.980;2022-09-09T15:37:00;19.30;;;7.43;;
20462;SDS011;10390;53.566;9.980;2022-09-09T15:39:26;10.38;;;5.20;;
20462;SDS011;10390;53.566;9.980;2022-09-09T15:41:52;6.50;;;5.45;;
20462;SDS011;10390;53.566;9.980;2022-09-09T15:44:18;9.60;;;5.13;;
20462;SDS011;10390;53.566;9.980;2022-09-09T15:46:50;6.70;;;5.10;;
20462;SDS011;10390;53.566;9.980;2022-09-09T15:49:22;7.30;;;5.03;;
20462;SDS011;10390;53.566;9.980;2022-09-09T15:51:53;6.75;;;5.07;;
20462;SDS011;10390;53.566;9.980;2022-09-09T15:54:21;8.30;;;5.25;;
20462;SDS011;10390;53.566;9.980;2022-09-09T15:56:53;7.97;;;5.07;;
20462;SDS011;10390;53.566;9.980;2022-09-09T15:59:21;7.53;;;4.93;;
20462;SDS011;10390;53.566;9.980;2022-09-09T16:01:53;8.23;;;5.03;;
20462;SDS011;10390;53.566;9.980;2022-09-09T16:04:20;6.53;;;5.32;;
20462;SDS011;10390;53.566;9.980;2022-09-09T16:06:50;8.35;;;4.88;;
20462;SDS011;10390;53.566;9.980;2022-09-09T16:09:20;5.53;;;4.90;;
20462;SDS011;10390;53.566;9.980;2022-09-09T16:11:46;6.75;;;4.72;;
20462;SDS011;10390;53.566;9.980;2022-09-09T16:14:13;5.63;;;4.47;;
20462;SDS011;10390;53.566;9.980;2022-09-09T16:16:40;10.35;;;4.72;;
20462;SDS011;10390;53.566;9.980;2022-09-09T16:19:07;6.22;;;4.82;;
20462;SDS011;10390;53.566;9.980;2022-09-09T16:21:42;5.95;;;4.70;;
20462;SDS011;10390;53.566;9.980;2022-09-09T16:24:11;5.72;;;5.00;;
20462;SDS011;10390;53.566;9.980;2022-09-09T16:26:39;5.95;;;4.47;;
20462;SDS011;10390;53.566;9.980;2022-09-09T16:29:10;7.18;;;4.57;;
20462;SDS011;10390;53.566;9.980;2022-09-09T16:31:37;6.07;;;4.75;;
20462;SDS011;10390;53.566;9.980;2022-09-09T16:34:03;7.03;;;5.10;;
20462;SDS011;10390;53.566;9.980;2022-09-09T16:36:29;7.93;;;6.43;;
20462;SDS011;10390;53.566;9.980;2022-09-09T16:38:59;11.52;;;7.68;;
20462;SDS011;10390;53.566;9.980;2022-09-09T16:41:27;8.68;;;7.03;;
20462;SDS011;10390;53.566;9.980;2022-09-09T16:43:58;9.73;;;7.43;;
20462;SDS011;10390;53.566;9.980;2022-09-09T16:46:26;13.57;;;9.80;;
20462;SDS011;10390;53.566;9.980;2022-09-09T16:48:53;13.50;;;11.45;;
20462;SDS011;10390;53.566;9.980;2022-09-09T16:51:21;14.38;;;10.00;;
20462;SDS011;10390;53.566;9.980;2022-09-09T16:53:51;15.77;;;11.35;;
20462;SDS011;10390;53.566;9.980;2022-09-09T16:56:19;13.48;;;10.43;;
20462;SDS011;10390;53.566;9.980;2022-09-09T16:58:50;18.67;;;11.68;;
20462;SDS011;10390;53.566;9.980;2022-09-09T17:01:23;20.42;;;13.07;;
20462;SDS011;10390;53.566;9.980;2022-09-09T17:03:56;20.58;;;13.68;;
20462;SDS011;10390;53.566;9.980;2022-09-09T17:06:28;18.02;;;13.57;;
20462;SDS011;10390;53.566;9.980;2022-09-09T17:08:55;18.33;;;13.25;;
20462;SDS011;10390;53.566;9.980;2022-09-09T17:11:25;17.80;;;14.32;;